createdAt,value
2023-05-17T00:03:13.999Z,98506.22
2023-05-17T00:07:16.138Z,98517.75
2023-05-17T00:11:18.207Z,98523.91
2023-05-17T00:15:20.251Z,98529.19
2023-05-17T00:19:22.468Z,98528.34
2023-05-17T00:23:24.889Z,98534.47
2023-05-17T00:27:26.948Z,98532.81
2023-05-17T00:31:29.086Z,98534.47
2023-05-17T00:35:31.369Z,98532.38
2023-05-17T00:39:33.549Z,98537.31
2023-05-17T00:43:35.749Z,98538.81
2023-05-17T00:47:37.950Z,98528.03
2023-05-17T00:51:40.851Z,98525.03
2023-05-17T00:55:46.249Z,98521.28
2023-05-17T00:59:49.433Z,98516.88
2023-05-17T01:03:52.083Z,98523.88
2023-05-17T01:07:54.357Z,98521.38
2023-05-17T01:11:56.453Z,98530.97
2023-05-17T01:16:10.684Z,98520.63
2023-05-17T01:20:35.468Z,98529.41
2023-05-17T01:24:52.080Z,98540.81
2023-05-17T01:28:56.027Z,98537.47
2023-05-17T01:32:59.584Z,98534.03
2023-05-17T01:37:01.745Z,98531.84
2023-05-17T01:41:16.450Z,98539.16
2023-05-17T01:45:33.766Z,98542.09
2023-05-17T01:49:40.472Z,98550.94
2023-05-17T01:53:57.105Z,98552.84
2023-05-17T01:58:01.726Z,98550.34
2023-05-17T02:02:08.929Z,98546.94
2023-05-17T02:06:11.782Z,98556.56
2023-05-17T02:10:16.139Z,98560.09
2023-05-17T02:14:18.195Z,98555.06
2023-05-17T02:18:21.933Z,98551.66
2023-05-17T02:22:24.160Z,98563.94
2023-05-17T02:26:26.271Z,98563.16
2023-05-17T02:30:28.358Z,98561.53
2023-05-17T02:34:30.423Z,98558.13
2023-05-17T02:38:32.495Z,98566.00
2023-05-17T02:42:34.560Z,98561.81
2023-05-17T02:46:38.436Z,98560.16
2023-05-17T02:50:40.660Z,98554.16
2023-05-17T02:54:45.518Z,98560.28
2023-05-17T02:58:48.217Z,98564.75
2023-05-17T03:02:50.586Z,98567.41
2023-05-17T03:06:52.960Z,98573.56
2023-05-17T03:10:55.250Z,98585.75
2023-05-17T03:14:58.509Z,98581.47
2023-05-17T03:19:01.049Z,98587.53
2023-05-17T03:23:04.156Z,98597.94
2023-05-17T03:27:06.486Z,98596.22
2023-05-17T03:31:08.974Z,98590.09
2023-05-17T03:35:11.324Z,98592.69
2023-05-17T03:39:15.733Z,98609.22
2023-05-17T03:43:18.628Z,98597.94
2023-05-17T03:47:24.734Z,98597.88
2023-05-17T03:51:26.950Z,98611.69
2023-05-17T03:55:29.192Z,98606.44
2023-05-17T03:59:31.387Z,98604.72
2023-05-17T04:03:33.723Z,98601.31
2023-05-17T04:07:35.898Z,98605.50
2023-05-17T04:11:38.254Z,98595.91
2023-05-17T04:15:40.391Z,98608.03
2023-05-17T04:19:43.537Z,98613.63
2023-05-17T04:23:45.799Z,98606.44
2023-05-17T04:27:48.053Z,98605.09
2023-05-17T04:31:50.277Z,98615.06
2023-05-17T04:35:55.756Z,98608.56
2023-05-17T04:39:59.191Z,98609.91
2023-05-17T04:44:02.798Z,98610.59
2023-05-17T04:48:10.376Z,98608.63
2023-05-17T04:52:12.443Z,98621.41
2023-05-17T04:56:14.699Z,98628.31
2023-05-17T05:00:17.574Z,98629.53
2023-05-17T05:04:25.586Z,98627.66
2023-05-17T05:08:28.217Z,98643.28
2023-05-17T05:12:31.349Z,98641.44
2023-05-17T05:16:34.271Z,98649.69
2023-05-17T05:20:36.636Z,98643.81
2023-05-17T05:24:41.124Z,98648.88
2023-05-17T05:28:43.345Z,98662.13
2023-05-17T05:32:46.475Z,98653.06
2023-05-17T05:36:48.634Z,98656.53
2023-05-17T05:40:51.067Z,98656.59
2023-05-17T05:44:53.160Z,98675.13
2023-05-17T05:48:56.985Z,98683.41
2023-05-17T05:53:10.919Z,98678.47
2023-05-17T05:57:23.521Z,98688.25
2023-05-17T06:01:25.780Z,98700.53
2023-05-17T06:05:27.918Z,98707.84
2023-05-17T06:09:30.005Z,98706.78
2023-05-17T06:13:32.039Z,98714.66
2023-05-17T06:17:34.148Z,98720.97
2023-05-17T06:21:36.226Z,98733.03
2023-05-17T06:25:38.421Z,98735.03
2023-05-17T06:29:40.543Z,98732.00
2023-05-17T06:33:42.654Z,98725.69
2023-05-17T06:37:44.912Z,98728.38
2023-05-17T06:41:46.960Z,98721.59
2023-05-17T06:45:52.840Z,98736.38
2023-05-17T06:49:54.889Z,98730.06
2023-05-17T06:53:57.070Z,98734.00
2023-05-17T06:58:00.201Z,98723.34
2023-05-17T07:02:02.876Z,98725.88
2023-05-17T07:06:05.277Z,98725.31
2023-05-17T07:10:07.785Z,98734.25
2023-05-17T07:14:09.866Z,98738.59
2023-05-17T07:18:12.049Z,98740.78
2023-05-17T07:22:14.231Z,98739.97
2023-05-17T07:26:19.578Z,98747.72
2023-05-17T07:30:21.621Z,98758.22
2023-05-17T07:34:24.965Z,98750.72
2023-05-17T07:38:27.039Z,98755.34
2023-05-17T07:42:29.066Z,98752.19
2023-05-17T07:46:31.251Z,98751.88
2023-05-17T07:50:33.430Z,98749.13
2023-05-17T07:54:35.516Z,98748.91
2023-05-17T07:58:37.551Z,98754.00
2023-05-17T08:02:40.940Z,98758.44
2023-05-17T08:06:45.569Z,98762.94
2023-05-17T08:10:47.890Z,98762.13
2023-05-17T08:14:50.026Z,98759.69
2023-05-17T08:18:52.403Z,98758.59
2023-05-17T08:22:57.957Z,98758.03
2023-05-17T08:26:59.991Z,98759.16
2023-05-17T08:31:02.041Z,98755.72
2023-05-17T08:35:04.863Z,98761.25
2023-05-17T08:39:08.443Z,98746.81
2023-05-17T08:43:13.013Z,98745.06
2023-05-17T08:47:25.870Z,98738.31
2023-05-17T08:51:29.025Z,98746.22
2023-05-17T08:55:33.170Z,98742.72
2023-05-17T08:59:35.899Z,98745.31
2023-05-17T09:03:41.066Z,98740.19
2023-05-17T09:07:43.645Z,98734.66
2023-05-17T09:11:45.754Z,98725.75
2023-05-17T09:15:49.153Z,98734.34
2023-05-17T09:19:51.861Z,98726.00
2023-05-17T09:24:05.363Z,98728.47
2023-05-17T09:28:08.935Z,98738.03
2023-05-17T09:32:16.690Z,98735.38
2023-05-17T09:36:21.038Z,98739.41
2023-05-17T09:40:26.317Z,98744.06
2023-05-17T09:44:28.394Z,98730.19
2023-05-17T09:48:30.809Z,98740.66
2023-05-17T09:52:35.663Z,98740.94
2023-05-17T09:56:37.843Z,98740.28
2023-05-17T10:00:43.077Z,98744.75
2023-05-17T10:04:49.432Z,98740.97
2023-05-17T10:08:55.948Z,98734.41
2023-05-17T10:13:00.499Z,98735.56
2023-05-17T10:17:03.348Z,98718.59
2023-05-17T10:21:07.749Z,98727.75
2023-05-17T10:25:10.428Z,98729.63
2023-05-17T10:29:12.975Z,98736.25
2023-05-17T10:33:16.270Z,98733.50
2023-05-17T10:37:19.829Z,98740.72
2023-05-17T10:41:25.343Z,98738.81
2023-05-17T10:45:27.959Z,98730.94
2023-05-17T10:49:32.304Z,98735.72
2023-05-17T10:53:34.417Z,98726.13
2023-05-17T11:01:54.380Z,98716.59
2023-05-17T11:06:23.643Z,98714.47
2023-05-17T11:10:27.920Z,98719.06
2023-05-17T11:14:45.245Z,98710.56
2023-05-17T11:18:51.484Z,98712.19
2023-05-17T11:23:06.820Z,98714.03
2023-05-17T11:27:09.050Z,98706.22
2023-05-17T11:31:11.406Z,98704.13
2023-05-17T11:35:14.510Z,98718.22
2023-05-17T11:39:23.639Z,98730.09
2023-05-17T11:43:31.115Z,98721.63
2023-05-17T11:47:33.669Z,98729.53
2023-05-17T11:51:36.085Z,98726.81
2023-05-17T11:55:40.181Z,98724.28
2023-05-17T11:59:43.189Z,98735.72
2023-05-17T12:03:47.371Z,98720.69
2023-05-17T12:07:52.779Z,98721.19
2023-05-17T12:11:55.548Z,98720.53
2023-05-17T12:16:03.557Z,98721.50
2023-05-17T12:20:09.856Z,98710.53
2023-05-17T12:24:12.404Z,98719.31
2023-05-17T12:28:22.186Z,98715.75
2023-05-17T12:32:25.531Z,98711.91
2023-05-17T12:36:29.366Z,98713.47
2023-05-17T12:40:31.971Z,98709.25
2023-05-17T12:44:34.106Z,98715.53
2023-05-17T12:48:37.904Z,98696.28
2023-05-17T12:52:41.128Z,98701.56
2023-05-17T12:56:46.403Z,98712.06
2023-05-17T13:00:59.361Z,98698.34
2023-05-17T13:05:16.049Z,98714.75
2023-05-17T13:09:20.670Z,98699.69
2023-05-17T13:13:22.756Z,98698.81
2023-05-17T13:17:26.224Z,98697.91
2023-05-17T13:21:28.364Z,98693.97
2023-05-17T13:25:31.564Z,98703.56
2023-05-17T13:29:39.505Z,98684.88
2023-05-17T13:33:42.813Z,98694.09
2023-05-17T13:37:44.896Z,98697.44
2023-05-17T13:41:46.969Z,98689.22
2023-05-17T13:45:54.331Z,98680.97
2023-05-17T13:49:56.360Z,98693.47
2023-05-17T13:53:58.404Z,98671.34
2023-05-17T13:58:00.453Z,98670.53
2023-05-17T14:02:04.136Z,98675.38
2023-05-17T14:06:06.777Z,98666.66
2023-05-17T14:10:12.132Z,98664.22
2023-05-17T14:14:14.203Z,98660.09
2023-05-17T14:18:16.427Z,98668.22
2023-05-17T14:22:18.557Z,98674.63
2023-05-17T14:26:21.615Z,98662.81
2023-05-17T14:30:24.170Z,98658.28
2023-05-17T14:34:26.301Z,98654.06
2023-05-17T14:38:28.392Z,98664.53
2023-05-17T14:42:31.298Z,98669.63
2023-05-17T14:46:34.315Z,98665.41
2023-05-17T14:50:36.458Z,98662.94
2023-05-17T14:54:39.925Z,98662.78
2023-05-17T14:58:42.282Z,98657.25
2023-05-17T15:02:44.466Z,98647.53
2023-05-17T15:06:46.535Z,98653.50
2023-05-17T15:10:50.661Z,98662.63
2023-05-17T15:14:52.779Z,98656.41
2023-05-17T15:18:57.295Z,98665.72
2023-05-17T15:22:59.822Z,98653.31
2023-05-17T15:27:01.927Z,98657.34
2023-05-17T15:31:06.469Z,98660.00
2023-05-17T15:35:08.864Z,98661.72
2023-05-17T15:39:11.072Z,98666.16
2023-05-17T15:43:13.212Z,98664.13
2023-05-17T15:47:15.264Z,98665.44
2023-05-17T15:51:17.379Z,98662.19
2023-05-17T15:55:19.509Z,98663.44
2023-05-17T15:59:21.550Z,98666.19
2023-05-17T16:03:23.629Z,98661.72
2023-05-17T16:07:26.476Z,98669.72
2023-05-17T16:11:28.760Z,98665.56
2023-05-17T16:15:31.214Z,98669.41
2023-05-17T16:19:34.300Z,98670.63
2023-05-17T16:23:36.639Z,98684.91
2023-05-17T16:27:38.805Z,98682.66
2023-05-17T16:31:40.949Z,98680.72
2023-05-17T16:35:43.538Z,98682.66
2023-05-17T16:39:45.825Z,98691.28
2023-05-17T16:43:47.888Z,98683.66
2023-05-17T16:47:49.994Z,98692.44
2023-05-17T16:51:52.580Z,98680.97
2023-05-17T16:55:55.246Z,98690.97
2023-05-17T16:59:58.119Z,98689.09
2023-05-17T17:04:00.408Z,98688.22
2023-05-17T17:08:02.600Z,98699.16
2023-05-17T17:12:20.063Z,98695.38
2023-05-17T17:16:25.420Z,98703.47
2023-05-17T17:20:27.719Z,98704.75
2023-05-17T17:24:29.906Z,98701.59
2023-05-17T17:28:31.931Z,98704.75
2023-05-17T17:32:34.182Z,98703.50
2023-05-17T17:36:36.289Z,98709.50
2023-05-17T17:40:38.359Z,98715.16
2023-05-17T17:44:40.437Z,98718.81
2023-05-17T17:48:42.533Z,98723.69
2023-05-17T17:52:44.618Z,98724.78
2023-05-17T17:56:46.653Z,98725.22
2023-05-17T18:00:48.695Z,98727.31
2023-05-17T18:04:50.954Z,98727.69
2023-05-17T18:08:53.058Z,98733.44
2023-05-17T18:12:55.100Z,98732.31
2023-05-17T18:16:57.454Z,98733.47
2023-05-17T18:20:59.708Z,98740.97
2023-05-17T18:25:01.740Z,98750.97
2023-05-17T18:29:04.071Z,98748.88
2023-05-17T18:33:07.329Z,98746.84
2023-05-17T18:37:09.413Z,98752.50
2023-05-17T18:41:11.436Z,98751.19
2023-05-17T18:45:13.523Z,98759.50
2023-05-17T18:49:16.808Z,98761.78
2023-05-17T18:53:18.952Z,98765.00
2023-05-17T18:57:21.020Z,98767.19
2023-05-17T19:01:23.236Z,98775.56
2023-05-17T19:05:25.377Z,98780.41
2023-05-17T19:09:27.418Z,98779.97
2023-05-17T19:13:29.816Z,98780.44
2023-05-17T19:17:32.081Z,98787.03
2023-05-17T19:21:34.618Z,98795.19
2023-05-17T19:25:36.718Z,98797.47
2023-05-17T19:29:38.767Z,98793.59
2023-05-17T19:33:40.856Z,98804.50
2023-05-17T19:37:43.062Z,98799.63
2023-05-17T19:41:45.096Z,98804.22
2023-05-17T19:45:47.160Z,98813.84
2023-05-17T19:49:49.266Z,98807.06
2023-05-17T19:53:54.026Z,98812.56
2023-05-17T19:58:00.898Z,98818.09
2023-05-17T20:02:02.977Z,98827.13
2023-05-17T20:06:05.112Z,98825.63
2023-05-17T20:10:07.323Z,98825.91
2023-05-17T20:14:09.821Z,98824.44
2023-05-17T20:18:12.851Z,98834.28
2023-05-17T20:22:14.937Z,98842.69
2023-05-17T20:26:18.755Z,98844.75
2023-05-17T20:30:20.827Z,98848.59
2023-05-17T20:34:23.022Z,98852.38
2023-05-17T20:38:25.157Z,98853.34
2023-05-17T20:42:28.148Z,98862.91
2023-05-17T20:46:30.770Z,98854.38
2023-05-17T20:50:32.946Z,98860.63
2023-05-17T20:54:35.091Z,98860.03
2023-05-17T20:58:37.175Z,98858.53
2023-05-17T21:02:39.361Z,98862.00
2023-05-17T21:06:41.967Z,98859.41
2023-05-17T21:10:46.436Z,98859.53
2023-05-17T21:14:56.494Z,98861.41
2023-05-17T21:19:06.593Z,98865.81
2023-05-17T21:23:08.645Z,98865.81
2023-05-17T21:27:10.695Z,98865.81
2023-05-17T21:31:13.169Z,98865.06
2023-05-17T21:35:15.534Z,98873.03
2023-05-17T21:39:17.645Z,98879.34
2023-05-17T21:43:19.667Z,98868.09
2023-05-17T21:47:21.714Z,98871.53
2023-05-17T21:51:23.795Z,98878.53
2023-05-17T21:55:27.042Z,98862.97
2023-05-17T21:59:29.204Z,98869.06
2023-05-17T22:03:31.446Z,98867.38
2023-05-17T22:07:33.843Z,98878.00
2023-05-17T22:11:38.327Z,98875.44
2023-05-17T22:15:41.459Z,98875.53
2023-05-17T22:19:45.127Z,98874.78
2023-05-17T22:23:47.251Z,98874.78
2023-05-17T22:27:49.485Z,98882.59
2023-05-17T22:31:51.734Z,98866.91
2023-05-17T22:35:54.105Z,98874.72
2023-05-17T22:39:56.362Z,98867.97
2023-05-17T22:43:58.402Z,98870.75
2023-05-17T22:48:02.793Z,98880.47
2023-05-17T22:52:05.923Z,98877.97
2023-05-17T22:56:07.926Z,98875.41
2023-05-17T23:00:11.250Z,98876.25
2023-05-17T23:04:14.259Z,98882.31
2023-05-17T23:08:16.490Z,98884.91
2023-05-17T23:12:18.607Z,98883.22
2023-05-17T23:16:25.883Z,98874.66
2023-05-17T23:20:28.049Z,98886.00
2023-05-17T23:24:30.239Z,98884.25
2023-05-17T23:28:32.303Z,98879.09
2023-05-17T23:32:34.806Z,98874.75
2023-05-17T23:36:36.933Z,98879.16
2023-05-17T23:40:40.248Z,98875.69
2023-05-17T23:44:42.935Z,98876.53
2023-05-17T23:48:50.194Z,98874.94
2023-05-17T23:52:52.145Z,98873.16
2023-05-17T23:56:54.111Z,98871.44
